sensor_id;sensor_type;location;lat;lon;timestamp;temperature;humidity
52187;DHT22;38161;53.020;6.598;2022-11-15T00:01:46;7.10;99.90
52187;DHT22;38161;53.020;6.598;2022-11-15T00:04:11;7.00;99.90
52187;DHT22;38161;53.020;6.598;2022-11-15T00:06:37;7.00;99.90
52187;DHT22;38161;53.020;6.598;2022-11-15T00:09:03;6.90;99.90
52187;DHT22;38161;53.020;6.598;2022-11-15T00:11:29;6.80;99.90
52187;DHT22;38161;53.020;6.598;2022-11-15T00:13:57;6.70;99.90
52187;DHT22;38161;53.020;6.598;2022-11-15T00:16:23;6.70;99.90
52187;DHT22;38161;53.020;6.598;2022-11-15T00:18:50;6.60;99.90
52187;DHT22;38161;53.020;6.598;2022-11-15T00:21:17;6.60;99.90
52187;DHT22;38161;53.020;6.598;2022-11-15T00:23:43;6.60;99.90
52187;DHT22;38161;53.020;6.598;2022-11-15T00:26:13;6.60;99.90
52187;DHT22;38161;53.020;6.598;2022-11-15T00:28:39;6.60;99.90
52187;DHT22;38161;53.020;6.598;2022-11-15T00:31:12;6.70;99.90
52187;DHT22;38161;53.020;6.598;2022-11-15T00:33:38;6.70;99.90
52187;DHT22;38161;53.020;6.598;2022-11-15T00:36:06;6.70;99.90
52187;DHT22;38161;53.020;6.598;2022-11-15T00:38:37;6.80;99.90
52187;DHT22;38161;53.020;6.598;2022-11-15T00:41:05;7.70;99.90
52187;DHT22;38161;53.020;6.598;2022-11-15T00:43:32;6.90;99.90
52187;DHT22;38161;53.020;6.598;2022-11-15T00:45:58;7.00;99.90
52187;DHT22;38161;53.020;6.598;2022-11-15T00:48:24;7.00;99.90
52187;DHT22;38161;53.020;6.598;2022-11-15T00:50:50;7.00;99.90
52187;DHT22;38161;53.020;6.598;2022-11-15T00:53:16;7.10;99.90
52187;DHT22;38161;53.020;6.598;2022-11-15T00:55:42;7.10;99.90
52187;DHT22;38161;53.020;6.598;2022-11-15T00:58:08;7.10;99.90
52187;DHT22;38161;53.020;6.598;2022-11-15T01:00:34;7.10;99.90
52187;DHT22;38161;53.020;6.598;2022-11-15T01:03:01;7.10;99.90
52187;DHT22;38161;53.020;6.598;2022-11-15T01:05:27;7.10;99.90
52187;DHT22;38161;53.020;6.598;2022-11-15T01:07:54;7.10;99.90
52187;DHT22;38161;53.020;6.598;2022-11-15T01:10:22;7.10;99.90
52187;DHT22;38161;53.020;6.598;2022-11-15T01:12:48;7.10;99.90
52187;DHT22;38161;53.020;6.598;2022-11-15T01:15:14;7.10;99.90
52187;DHT22;38161;53.020;6.598;2022-11-15T01:17:40;7.10;99.90
52187;DHT22;38161;53.020;6.598;2022-11-15T01:20:06;7.10;99.90
52187;DHT22;38161;53.020;6.598;2022-11-15T01:22:32;7.10;99.90
52187;DHT22;38161;53.020;6.598;2022-11-15T01:24:58;7.20;99.90
52187;DHT22;38161;53.020;6.598;2022-11-15T01:27:23;7.10;99.90
52187;DHT22;38161;53.020;6.598;2022-11-15T01:29:49;7.10;99.90
52187;DHT22;38161;53.020;6.598;2022-11-15T01:32:16;7.30;99.90
52187;DHT22;38161;53.020;6.598;2022-11-15T01:34:41;7.10;99.90
52187;DHT22;38161;53.020;6.598;2022-11-15T01:37:07;7.10;99.90
52187;DHT22;38161;53.020;6.598;2022-11-15T01:39:33;7.10;99.90
52187;DHT22;38161;53.020;6.598;2022-11-15T01:41:59;7.20;99.90
52187;DHT22;38161;53.020;6.598;2022-11-15T01:47:04;7.10;99.90
52187;DHT22;38161;53.020;6.598;2022-11-15T01:49:34;7.10;99.90
52187;DHT22;38161;53.020;6.598;2022-11-15T01:52:05;7.10;99.90
52187;DHT22;38161;53.020;6.598;2022-11-15T01:54:31;7.10;99.90
52187;DHT22;38161;53.020;6.598;2022-11-15T01:57:08;7.10;99.90
52187;DHT22;38161;53.020;6.598;2022-11-15T01:59:35;7.10;99.90
52187;DHT22;38161;53.020;6.598;2022-11-15T02:02:01;7.10;99.90
52187;DHT22;38161;53.020;6.598;2022-11-15T02:04:46;7.10;99.90
52187;DHT22;38161;53.020;6.598;2022-11-15T02:07:15;7.10;99.90
52187;DHT22;38161;53.020;6.598;2022-11-15T02:09:42;7.10;99.90
52187;DHT22;38161;53.020;6.598;2022-11-15T02:12:10;7.10;99.90
52187;DHT22;38161;53.020;6.598;2022-11-15T02:14:38;7.10;99.90
52187;DHT22;38161;53.020;6.598;2022-11-15T02:17:33;7.20;99.90
52187;DHT22;38161;53.020;6.598;2022-11-15T02:25:52;7.20;99.90
52187;DHT22;38161;53.020;6.598;2022-11-15T02:31:41;7.20;99.90
52187;DHT22;38161;53.020;6.598;2022-11-15T02:34:28;7.20;99.90
52187;DHT22;38161;53.020;6.598;2022-11-15T02:40:07;7.20;99.90
52187;DHT22;38161;53.020;6.598;2022-11-15T02:42:49;7.20;99.90
52187;DHT22;38161;53.020;6.598;2022-11-15T02:45:39;7.20;99.90
52187;DHT22;38161;53.020;6.598;2022-11-15T02:48:06;7.20;99.90
52187;DHT22;38161;53.020;6.598;2022-11-15T02:50:33;7.20;99.90
52187;DHT22;38161;53.020;6.598;2022-11-15T02:52:59;7.30;99.90
52187;DHT22;38161;53.020;6.598;2022-11-15T03:01:35;7.30;99.90
52187;DHT22;38161;53.020;6.598;2022-11-15T03:11:50;7.30;99.90
52187;DHT22;38161;53.020;6.598;2022-11-15T03:14:32;7.40;99.90
52187;DHT22;38161;53.020;6.598;2022-11-15T03:17:05;7.40;99.90
52187;DHT22;38161;53.020;6.598;2022-11-15T03:22:08;7.40;99.90
52187;DHT22;38161;53.020;6.598;2022-11-15T03:24:37;7.50;99.90
52187;DHT22;38161;53.020;6.598;2022-11-15T03:27:06;7.40;99.90
52187;DHT22;38161;53.020;6.598;2022-11-15T03:29:46;7.50;99.90
52187;DHT22;38161;53.020;6.598;2022-11-15T03:32:17;7.50;99.90
52187;DHT22;38161;53.020;6.598;2022-11-15T03:34:51;7.50;99.90
52187;DHT22;38161;53.020;6.598;2022-11-15T03:37:21;7.50;99.90
52187;DHT22;38161;53.020;6.598;2022-11-15T03:39:47;7.50;99.90
52187;DHT22;38161;53.020;6.598;2022-11-15T03:42:29;7.50;99.90
52187;DHT22;38161;53.020;6.598;2022-11-15T03:45:02;7.60;99.90
52187;DHT22;38161;53.020;6.598;2022-11-15T03:47:47;7.60;99.90
52187;DHT22;38161;53.020;6.598;2022-11-15T03:50:18;7.60;99.90
52187;DHT22;38161;53.020;6.598;2022-11-15T03:52:48;7.60;99.90
52187;DHT22;38161;53.020;6.598;2022-11-15T03:55:19;7.60;99.90
52187;DHT22;38161;53.020;6.598;2022-11-15T03:57:48;7.60;99.90
52187;DHT22;38161;53.020;6.598;2022-11-15T04:00:15;7.60;99.90
52187;DHT22;38161;53.020;6.598;2022-11-15T04:02:40;7.70;99.90
52187;DHT22;38161;53.020;6.598;2022-11-15T04:05:06;7.70;99.90
52187;DHT22;38161;53.020;6.598;2022-11-15T04:07:32;7.70;99.90
52187;DHT22;38161;53.020;6.598;2022-11-15T04:09:58;7.90;99.90
52187;DHT22;38161;53.020;6.598;2022-11-15T04:12:32;7.70;99.90
52187;DHT22;38161;53.020;6.598;2022-11-15T04:15:06;7.70;99.90
52187;DHT22;38161;53.020;6.598;2022-11-15T04:17:42;7.70;99.90
52187;DHT22;38161;53.020;6.598;2022-11-15T04:20:11;7.70;99.90
52187;DHT22;38161;53.020;6.598;2022-11-15T04:22:57;7.70;99.90
52187;DHT22;38161;53.020;6.598;2022-11-15T04:25:43;7.70;99.90
52187;DHT22;38161;53.020;6.598;2022-11-15T04:28:09;7.70;99.90
52187;DHT22;38161;53.020;6.598;2022-11-15T04:30:37;7.80;99.90
52187;DHT22;38161;53.020;6.598;2022-11-15T04:33:03;7.80;99.90
52187;DHT22;38161;53.020;6.598;2022-11-15T04:35:28;7.80;99.90
52187;DHT22;38161;53.020;6.598;2022-11-15T04:37:55;7.80;99.90
52187;DHT22;38161;53.020;6.598;2022-11-15T04:40:21;7.90;99.90
52187;DHT22;38161;53.020;6.598;2022-11-15T04:42:47;7.90;99.90
52187;DHT22;38161;53.020;6.598;2022-11-15T04:45:13;7.90;99.90
52187;DHT22;38161;53.020;6.598;2022-11-15T04:47:38;7.90;99.90
52187;DHT22;38161;53.020;6.598;2022-11-15T04:50:04;7.90;99.90
52187;DHT22;38161;53.020;6.598;2022-11-15T04:52:30;8.00;99.90
52187;DHT22;38161;53.020;6.598;2022-11-15T04:54:56;8.00;99.90
52187;DHT22;38161;53.020;6.598;2022-11-15T04:57:22;8.00;99.90
52187;DHT22;38161;53.020;6.598;2022-11-15T04:59:47;8.00;99.90
52187;DHT22;38161;53.020;6.598;2022-11-15T05:02:13;8.00;99.90
52187;DHT22;38161;53.020;6.598;2022-11-15T05:04:39;8.10;99.90
52187;DHT22;38161;53.020;6.598;2022-11-15T05:07:04;8.10;99.90
52187;DHT22;38161;53.020;6.598;2022-11-15T05:09:30;8.10;99.90
52187;DHT22;38161;53.020;6.598;2022-11-15T05:11:56;8.10;99.90
52187;DHT22;38161;53.020;6.598;2022-11-15T05:14:21;8.20;99.90
52187;DHT22;38161;53.020;6.598;2022-11-15T05:16:47;8.20;99.90
52187;DHT22;38161;53.020;6.598;2022-11-15T05:19:13;8.30;99.90
52187;DHT22;38161;53.020;6.598;2022-11-15T05:21:39;8.20;99.90
52187;DHT22;38161;53.020;6.598;2022-11-15T05:24:05;8.30;99.90
52187;DHT22;38161;53.020;6.598;2022-11-15T05:26:31;8.30;99.90
52187;DHT22;38161;53.020;6.598;2022-11-15T05:28:58;8.30;99.90
52187;DHT22;38161;53.020;6.598;2022-11-15T05:31:24;8.40;99.90
52187;DHT22;38161;53.020;6.598;2022-11-15T05:33:51;8.40;99.90
52187;DHT22;38161;53.020;6.598;2022-11-15T05:36:36;8.40;99.90
52187;DHT22;38161;53.020;6.598;2022-11-15T05:39:05;8.40;99.90
52187;DHT22;38161;53.020;6.598;2022-11-15T05:41:37;8.50;99.90
52187;DHT22;38161;53.020;6.598;2022-11-15T05:44:07;8.50;99.90
52187;DHT22;38161;53.020;6.598;2022-11-15T05:46:34;8.50;99.90
52187;DHT22;38161;53.020;6.598;2022-11-15T05:49:02;8.60;99.90
52187;DHT22;38161;53.020;6.598;2022-11-15T05:51:30;8.70;99.90
52187;DHT22;38161;53.020;6.598;2022-11-15T05:53:57;8.70;99.90
52187;DHT22;38161;53.020;6.598;2022-11-15T05:56:24;8.70;99.90
52187;DHT22;38161;53.020;6.598;2022-11-15T05:58:54;8.80;99.90
52187;DHT22;38161;53.020;6.598;2022-11-15T06:01:21;8.80;99.90
52187;DHT22;38161;53.020;6.598;2022-11-15T06:03:47;8.80;99.90
52187;DHT22;38161;53.020;6.598;2022-11-15T06:06:12;8.90;99.90
52187;DHT22;38161;53.020;6.598;2022-11-15T06:08:38;8.90;99.90
52187;DHT22;38161;53.020;6.598;2022-11-15T06:11:07;9.00;99.90
52187;DHT22;38161;53.020;6.598;2022-11-15T06:13:33;9.10;99.90
52187;DHT22;38161;53.020;6.598;2022-11-15T06:15:59;9.10;99.90
52187;DHT22;38161;53.020;6.598;2022-11-15T06:18:26;9.10;99.90
52187;DHT22;38161;53.020;6.598;2022-11-15T06:20:51;9.10;99.90
52187;DHT22;38161;53.020;6.598;2022-11-15T06:23:17;9.20;99.90
52187;DHT22;38161;53.020;6.598;2022-11-15T06:25:43;9.20;99.90
52187;DHT22;38161;53.020;6.598;2022-11-15T06:28:09;9.20;99.90
52187;DHT22;38161;53.020;6.598;2022-11-15T06:30:34;9.20;99.90
52187;DHT22;38161;53.020;6.598;2022-11-15T06:33:02;9.30;99.90
52187;DHT22;38161;53.020;6.598;2022-11-15T06:35:28;9.30;99.90
52187;DHT22;38161;53.020;6.598;2022-11-15T06:37:55;9.30;99.90
52187;DHT22;38161;53.020;6.598;2022-11-15T06:40:21;9.30;99.90
52187;DHT22;38161;53.020;6.598;2022-11-15T06:42:47;9.40;99.90
52187;DHT22;38161;53.020;6.598;2022-11-15T06:45:12;9.40;99.90
52187;DHT22;38161;53.020;6.598;2022-11-15T06:47:45;9.40;99.90
52187;DHT22;38161;53.020;6.598;2022-11-15T06:50:12;9.40;99.90
52187;DHT22;38161;53.020;6.598;2022-11-15T06:52:37;9.40;99.90
52187;DHT22;38161;53.020;6.598;2022-11-15T06:55:03;9.40;99.90
52187;DHT22;38161;53.020;6.598;2022-11-15T06:57:29;9.50;99.90
52187;DHT22;38161;53.020;6.598;2022-11-15T06:59:55;9.50;99.90
52187;DHT22;38161;53.020;6.598;2022-11-15T07:02:20;9.50;99.90
52187;DHT22;38161;53.020;6.598;2022-11-15T07:04:46;9.50;99.90
52187;DHT22;38161;53.020;6.598;2022-11-15T07:07:11;9.60;99.90
52187;DHT22;38161;53.020;6.598;2022-11-15T07:09:37;9.60;99.90
52187;DHT22;38161;53.020;6.598;2022-11-15T07:12:03;9.60;99.90
52187;DHT22;38161;53.020;6.598;2022-11-15T07:14:29;9.60;99.90
52187;DHT22;38161;53.020;6.598;2022-11-15T07:16:54;9.70;99.90
52187;DHT22;38161;53.020;6.598;2022-11-15T07:19:20;9.60;99.90
52187;DHT22;38161;53.020;6.598;2022-11-15T07:21:46;9.70;99.90
52187;DHT22;38161;53.020;6.598;2022-11-15T07:24:12;9.70;99.90
52187;DHT22;38161;53.020;6.598;2022-11-15T07:26:37;9.80;99.90
52187;DHT22;38161;53.020;6.598;2022-11-15T07:29:03;9.80;99.90
52187;DHT22;38161;53.020;6.598;2022-11-15T07:31:29;9.80;99.90
52187;DHT22;38161;53.020;6.598;2022-11-15T07:33:54;9.80;99.90
52187;DHT22;38161;53.020;6.598;2022-11-15T07:36:20;9.80;99.90
52187;DHT22;38161;53.020;6.598;2022-11-15T07:38:46;9.80;99.90
52187;DHT22;38161;53.020;6.598;2022-11-15T07:41:11;9.80;99.90
52187;DHT22;38161;53.020;6.598;2022-11-15T07:43:37;9.80;99.90
52187;DHT22;38161;53.020;6.598;2022-11-15T07:46:07;9.90;99.90
52187;DHT22;38161;53.020;6.598;2022-11-15T07:48:35;9.90;99.90
52187;DHT22;38161;53.020;6.598;2022-11-15T07:51:01;9.90;99.90
52187;DHT22;38161;53.020;6.598;2022-11-15T07:53:26;9.90;99.90
52187;DHT22;38161;53.020;6.598;2022-11-15T07:55:52;10.00;99.90
52187;DHT22;38161;53.020;6.598;2022-11-15T07:58:18;10.00;99.90
52187;DHT22;38161;53.020;6.598;2022-11-15T08:00:44;10.00;99.90
52187;DHT22;38161;53.020;6.598;2022-11-15T08:03:12;10.00;99.90
52187;DHT22;38161;53.020;6.598;2022-11-15T08:05:39;10.10;99.90
52187;DHT22;38161;53.020;6.598;2022-11-15T08:08:06;10.10;99.90
52187;DHT22;38161;53.020;6.598;2022-11-15T08:10:33;10.10;99.90
52187;DHT22;38161;53.020;6.598;2022-11-15T08:13:00;10.10;99.90
52187;DHT22;38161;53.020;6.598;2022-11-15T08:15:27;10.20;99.90
52187;DHT22;38161;53.020;6.598;2022-11-15T08:17:57;10.20;99.90
52187;DHT22;38161;53.020;6.598;2022-11-15T08:20:24;10.20;99.90
52187;DHT22;38161;53.020;6.598;2022-11-15T08:22:50;10.30;99.90
52187;DHT22;38161;53.020;6.598;2022-11-15T08:25:17;10.30;99.90
52187;DHT22;38161;53.020;6.598;2022-11-15T08:27:42;10.30;99.90
52187;DHT22;38161;53.020;6.598;2022-11-15T08:30:09;10.30;99.90
52187;DHT22;38161;53.020;6.598;2022-11-15T08:32:35;10.30;99.90
52187;DHT22;38161;53.020;6.598;2022-11-15T08:35:00;10.30;99.90
52187;DHT22;38161;53.020;6.598;2022-11-15T08:37:26;10.40;99.90
52187;DHT22;38161;53.020;6.598;2022-11-15T08:39:52;10.40;99.90
52187;DHT22;38161;53.020;6.598;2022-11-15T08:42:17;10.40;99.90
52187;DHT22;38161;53.020;6.598;2022-11-15T08:44:43;10.50;99.90
52187;DHT22;38161;53.020;6.598;2022-11-15T08:47:11;10.50;99.90
52187;DHT22;38161;53.020;6.598;2022-11-15T08:49:37;10.50;99.90
52187;DHT22;38161;53.020;6.598;2022-11-15T08:52:03;10.60;99.90
52187;DHT22;38161;53.020;6.598;2022-11-15T08:54:29;10.60;99.90
52187;DHT22;38161;53.020;6.598;2022-11-15T08:56:54;10.60;99.90
52187;DHT22;38161;53.020;6.598;2022-11-15T08:59:20;10.60;99.90
52187;DHT22;38161;53.020;6.598;2022-11-15T09:01:46;10.60;99.90
52187;DHT22;38161;53.020;6.598;2022-11-15T09:04:11;10.60;99.90
52187;DHT22;38161;53.020;6.598;2022-11-15T09:06:37;10.70;99.90
52187;DHT22;38161;53.020;6.598;2022-11-15T09:09:03;10.70;99.90
52187;DHT22;38161;53.020;6.598;2022-11-15T09:11:29;10.70;99.90
52187;DHT22;38161;53.020;6.598;2022-11-15T09:13:54;10.80;99.90
52187;DHT22;38161;53.020;6.598;2022-11-15T09:16:20;10.70;99.90
52187;DHT22;38161;53.020;6.598;2022-11-15T09:18:46;10.80;99.90
52187;DHT22;38161;53.020;6.598;2022-11-15T09:21:12;10.80;99.90
52187;DHT22;38161;53.020;6.598;2022-11-15T09:23:37;10.90;99.90
52187;DHT22;38161;53.020;6.598;2022-11-15T09:26:05;10.90;99.90
52187;DHT22;38161;53.020;6.598;2022-11-15T09:28:32;10.90;99.90
52187;DHT22;38161;53.020;6.598;2022-11-15T09:30:59;11.00;99.90
52187;DHT22;38161;53.020;6.598;2022-11-15T09:33:26;11.00;99.90
52187;DHT22;38161;53.020;6.598;2022-11-15T09:35:52;11.00;99.90
52187;DHT22;38161;53.020;6.598;2022-11-15T09:38:18;11.10;99.90
52187;DHT22;38161;53.020;6.598;2022-11-15T09:40:51;11.10;99.90
52187;DHT22;38161;53.020;6.598;2022-11-15T09:46:12;11.10;99.90
52187;DHT22;38161;53.020;6.598;2022-11-15T09:48:55;11.10;99.90
52187;DHT22;38161;53.020;6.598;2022-11-15T09:51:47;11.10;99.90
52187;DHT22;38161;53.020;6.598;2022-11-15T09:54:25;11.10;99.90
52187;DHT22;38161;53.020;6.598;2022-11-15T09:56:53;11.20;99.90
52187;DHT22;38161;53.020;6.598;2022-11-15T09:59:37;11.20;99.90
52187;DHT22;38161;53.020;6.598;2022-11-15T10:02:34;11.30;99.90
52187;DHT22;38161;53.020;6.598;2022-11-15T10:05:10;11.30;99.90
52187;DHT22;38161;53.020;6.598;2022-11-15T10:10:38;11.30;99.90
52187;DHT22;38161;53.020;6.598;2022-11-15T10:13:06;11.30;99.90
52187;DHT22;38161;53.020;6.598;2022-11-15T10:15:35;11.30;99.90
52187;DHT22;38161;53.020;6.598;2022-11-15T10:20:59;11.40;99.90
52187;DHT22;38161;53.020;6.598;2022-11-15T10:23:27;11.30;99.90
52187;DHT22;38161;53.020;6.598;2022-11-15T10:26:00;11.40;99.90
52187;DHT22;38161;53.020;6.598;2022-11-15T10:28:28;11.30;99.90
52187;DHT22;38161;53.020;6.598;2022-11-15T10:30:56;11.30;99.90
52187;DHT22;38161;53.020;6.598;2022-11-15T10:41:31;11.40;99.90
52187;DHT22;38161;53.020;6.598;2022-11-15T10:46:46;11.40;99.90
52187;DHT22;38161;53.020;6.598;2022-11-15T10:49:25;11.40;99.90
52187;DHT22;38161;53.020;6.598;2022-11-15T10:51:58;11.40;99.90
52187;DHT22;38161;53.020;6.598;2022-11-15T10:54:53;11.40;99.90
52187;DHT22;38161;53.020;6.598;2022-11-15T10:57:22;11.40;99.90
52187;DHT22;38161;53.020;6.598;2022-11-15T10:59:52;11.50;99.90
52187;DHT22;38161;53.020;6.598;2022-11-15T11:04:55;11.50;99.90
52187;DHT22;38161;53.020;6.598;2022-11-15T11:07:30;11.50;99.90
52187;DHT22;38161;53.020;6.598;2022-11-15T11:10:05;11.60;99.90
52187;DHT22;38161;53.020;6.598;2022-11-15T11:12:42;11.60;99.90
52187;DHT22;38161;53.020;6.598;2022-11-15T11:15:15;11.70;99.90
52187;DHT22;38161;53.020;6.598;2022-11-15T11:23:02;11.80;99.90
52187;DHT22;38161;53.020;6.598;2022-11-15T11:25:36;12.20;99.90
52187;DHT22;38161;53.020;6.598;2022-11-15T11:33:37;12.50;99.90
52187;DHT22;38161;53.020;6.598;2022-11-15T11:44:32;12.60;99.90
52187;DHT22;38161;53.020;6.598;2022-11-15T11:50:15;12.50;99.90
52187;DHT22;38161;53.020;6.598;2022-11-15T12:00:47;12.50;99.90
52187;DHT22;38161;53.020;6.598;2022-11-15T12:04:29;12.30;99.90
52187;DHT22;38161;53.020;6.598;2022-11-15T12:06:55;12.30;99.90
52187;DHT22;38161;53.020;6.598;2022-11-15T12:17:35;12.50;99.90
52187;DHT22;38161;53.020;6.598;2022-11-15T12:20:23;12.50;99.90
52187;DHT22;38161;53.020;6.598;2022-11-15T12:26:03;12.50;99.90
52187;DHT22;38161;53.020;6.598;2022-11-15T12:28:52;12.50;99.90
52187;DHT22;38161;53.020;6.598;2022-11-15T12:34:47;12.40;99.90
52187;DHT22;38161;53.020;6.598;2022-11-15T12:36:49;12.30;99.90
52187;DHT22;38161;53.020;6.598;2022-11-15T12:39:16;12.40;99.90
52187;DHT22;38161;53.020;6.598;2022-11-15T12:41:44;12.40;99.90
52187;DHT22;38161;53.020;6.598;2022-11-15T12:47:22;12.60;99.90
52187;DHT22;38161;53.020;6.598;2022-11-15T12:49:49;12.70;99.90
52187;DHT22;38161;53.020;6.598;2022-11-15T12:52:15;12.70;99.90
52187;DHT22;38161;53.020;6.598;2022-11-15T12:59:55;12.60;99.90
52187;DHT22;38161;53.020;6.598;2022-11-15T13:02:39;12.50;99.90
52187;DHT22;38161;53.020;6.598;2022-11-15T13:17:39;12.40;99.90
52187;DHT22;38161;53.020;6.598;2022-11-15T13:28:09;12.30;99.90
52187;DHT22;38161;53.020;6.598;2022-11-15T13:30:36;12.30;99.90
52187;DHT22;38161;53.020;6.598;2022-11-15T13:33:14;12.20;99.90
52187;DHT22;38161;53.020;6.598;2022-11-15T13:35:42;12.20;99.90
52187;DHT22;38161;53.020;6.598;2022-11-15T13:38:30;12.20;99.90
52187;DHT22;38161;53.020;6.598;2022-11-15T13:40:57;12.10;99.90
52187;DHT22;38161;53.020;6.598;2022-11-15T13:43:34;12.10;99.90
52187;DHT22;38161;53.020;6.598;2022-11-15T13:48:42;12.10;99.90
52187;DHT22;38161;53.020;6.598;2022-11-15T13:51:39;12.00;99.90
52187;DHT22;38161;53.020;6.598;2022-11-15T13:56:41;12.00;99.90
52187;DHT22;38161;53.020;6.598;2022-11-15T13:59:24;12.00;99.90
52187;DHT22;38161;53.020;6.598;2022-11-15T14:01:52;12.00;99.90
52187;DHT22;38161;53.020;6.598;2022-11-15T14:04:20;12.00;99.90
52187;DHT22;38161;53.020;6.598;2022-11-15T14:06:50;12.00;99.90
52187;DHT22;38161;53.020;6.598;2022-11-15T14:09:29;12.00;99.90
52187;DHT22;38161;53.020;6.598;2022-11-15T14:11:56;11.90;99.90
52187;DHT22;38161;53.020;6.598;2022-11-15T14:14:24;11.90;99.90
52187;DHT22;38161;53.020;6.598;2022-11-15T14:16:53;11.80;99.90
52187;DHT22;38161;53.020;6.598;2022-11-15T14:25:18;11.70;99.90
52187;DHT22;38161;53.020;6.598;2022-11-15T14:28:08;11.70;99.90
52187;DHT22;38161;53.020;6.598;2022-11-15T14:30:34;11.60;99.90
52187;DHT22;38161;53.020;6.598;2022-11-15T14:33:00;11.50;99.90
52187;DHT22;38161;53.020;6.598;2022-11-15T14:35:26;11.50;99.90
52187;DHT22;38161;53.020;6.598;2022-11-15T14:37:59;11.50;99.90
52187;DHT22;38161;53.020;6.598;2022-11-15T14:40:25;11.40;99.90
52187;DHT22;38161;53.020;6.598;2022-11-15T14:42:50;11.40;99.90
52187;DHT22;38161;53.020;6.598;2022-11-15T14:45:21;11.30;99.90
52187;DHT22;38161;53.020;6.598;2022-11-15T14:47:47;11.30;99.90
52187;DHT22;38161;53.020;6.598;2022-11-15T14:50:16;11.30;99.90
52187;DHT22;38161;53.020;6.598;2022-11-15T14:52:42;11.20;99.90
52187;DHT22;38161;53.020;6.598;2022-11-15T14:55:30;11.20;99.90
52187;DHT22;38161;53.020;6.598;2022-11-15T14:57:58;11.10;99.90
52187;DHT22;38161;53.020;6.598;2022-11-15T15:00:24;11.10;99.90
52187;DHT22;38161;53.020;6.598;2022-11-15T15:02:52;11.00;99.90
52187;DHT22;38161;53.020;6.598;2022-11-15T15:05:24;11.00;99.90
52187;DHT22;38161;53.020;6.598;2022-11-15T15:07:51;10.90;99.90
52187;DHT22;38161;53.020;6.598;2022-11-15T15:10:20;10.80;99.90
52187;DHT22;38161;53.020;6.598;2022-11-15T15:12:45;10.70;99.90
52187;DHT22;38161;53.020;6.598;2022-11-15T15:15:23;10.60;99.90
52187;DHT22;38161;53.020;6.598;2022-11-15T15:17:49;10.60;99.90
52187;DHT22;38161;53.020;6.598;2022-11-15T15:20:15;10.50;99.90
52187;DHT22;38161;53.020;6.598;2022-11-15T15:22:41;10.50;99.90
52187;DHT22;38161;53.020;6.598;2022-11-15T15:25:28;10.40;99.90
52187;DHT22;38161;53.020;6.598;2022-11-15T15:27:55;10.30;99.90
52187;DHT22;38161;53.020;6.598;2022-11-15T15:30:22;10.20;99.90
52187;DHT22;38161;53.020;6.598;2022-11-15T15:32:48;10.20;99.90
52187;DHT22;38161;53.020;6.598;2022-11-15T15:35:15;10.10;99.90
52187;DHT22;38161;53.020;6.598;2022-11-15T15:37:42;10.10;99.90
52187;DHT22;38161;53.020;6.598;2022-11-15T15:40:28;10.10;99.90
52187;DHT22;38161;53.020;6.598;2022-11-15T15:42:54;10.10;99.90
52187;DHT22;38161;53.020;6.598;2022-11-15T15:45:20;10.10;99.90
52187;DHT22;38161;53.020;6.598;2022-11-15T15:47:46;10.10;99.90
52187;DHT22;38161;53.020;6.598;2022-11-15T15:50:31;10.10;99.90
52187;DHT22;38161;53.020;6.598;2022-11-15T15:52:59;10.10;99.90
52187;DHT22;38161;53.020;6.598;2022-11-15T15:55:25;10.20;99.90
52187;DHT22;38161;53.020;6.598;2022-11-15T15:57:51;10.20;99.90
52187;DHT22;38161;53.020;6.598;2022-11-15T16:00:18;10.30;99.90
52187;DHT22;38161;53.020;6.598;2022-11-15T16:02:45;10.20;99.90
52187;DHT22;38161;53.020;6.598;2022-11-15T16:05:11;10.20;99.90
52187;DHT22;38161;53.020;6.598;2022-11-15T16:07:37;10.20;99.90
52187;DHT22;38161;53.020;6.598;2022-11-15T16:10:18;10.20;99.90
52187;DHT22;38161;53.020;6.598;2022-11-15T16:12:44;10.20;99.90
52187;DHT22;38161;53.020;6.598;2022-11-15T16:15:09;10.20;99.90
52187;DHT22;38161;53.020;6.598;2022-11-15T16:17:40;10.20;99.90
52187;DHT22;38161;53.020;6.598;2022-11-15T16:20:21;10.20;99.90
52187;DHT22;38161;53.020;6.598;2022-11-15T16:22:47;10.20;99.90
52187;DHT22;38161;53.020;6.598;2022-11-15T16:25:13;10.20;99.90
52187;DHT22;38161;53.020;6.598;2022-11-15T16:27:39;10.20;99.90
52187;DHT22;38161;53.020;6.598;2022-11-15T16:30:15;10.10;99.90
52187;DHT22;38161;53.020;6.598;2022-11-15T16:32:40;10.10;99.90
52187;DHT22;38161;53.020;6.598;2022-11-15T16:35:10;10.10;99.90
52187;DHT22;38161;53.020;6.598;2022-11-15T16:37:36;10.10;99.90
52187;DHT22;38161;53.020;6.598;2022-11-15T16:40:02;10.10;99.90
52187;DHT22;38161;53.020;6.598;2022-11-15T16:42:28;10.10;99.90
52187;DHT22;38161;53.020;6.598;2022-11-15T16:44:54;10.10;99.90
52187;DHT22;38161;53.020;6.598;2022-11-15T16:47:20;10.20;99.90
52187;DHT22;38161;53.020;6.598;2022-11-15T16:49:45;10.20;99.90
52187;DHT22;38161;53.020;6.598;2022-11-15T16:52:11;10.20;99.90
52187;DHT22;38161;53.020;6.598;2022-11-15T16:54:37;10.20;99.90
52187;DHT22;38161;53.020;6.598;2022-11-15T16:57:03;10.20;99.90
52187;DHT22;38161;53.020;6.598;2022-11-15T16:59:28;10.20;99.90
52187;DHT22;38161;53.020;6.598;2022-11-15T17:01:56;10.20;99.90
52187;DHT22;38161;53.020;6.598;2022-11-15T17:04:21;10.20;99.90
52187;DHT22;38161;53.020;6.598;2022-11-15T17:06:48;10.20;99.90
52187;DHT22;38161;53.020;6.598;2022-11-15T17:09:15;10.20;99.90
52187;DHT22;38161;53.020;6.598;2022-11-15T17:11:42;10.20;99.90
52187;DHT22;38161;53.020;6.598;2022-11-15T17:14:08;10.20;99.90
52187;DHT22;38161;53.020;6.598;2022-11-15T17:16:34;10.20;99.90
52187;DHT22;38161;53.020;6.598;2022-11-15T17:19:03;10.30;99.90
52187;DHT22;38161;53.020;6.598;2022-11-15T17:21:29;10.30;99.90
52187;DHT22;38161;53.020;6.598;2022-11-15T17:23:54;10.20;99.90
52187;DHT22;38161;53.020;6.598;2022-11-15T17:26:21;10.30;99.90
52187;DHT22;38161;53.020;6.598;2022-11-15T17:28:46;10.20;99.90
52187;DHT22;38161;53.020;6.598;2022-11-15T17:31:13;10.20;99.90
52187;DHT22;38161;53.020;6.598;2022-11-15T17:33:40;10.20;99.90
52187;DHT22;38161;53.020;6.598;2022-11-15T17:36:09;10.20;99.90
52187;DHT22;38161;53.020;6.598;2022-11-15T17:38:35;10.30;99.90
52187;DHT22;38161;53.020;6.598;2022-11-15T17:41:05;10.20;99.90
52187;DHT22;38161;53.020;6.598;2022-11-15T17:43:34;10.20;99.90
52187;DHT22;38161;53.020;6.598;2022-11-15T17:46:04;10.30;99.90
52187;DHT22;38161;53.020;6.598;2022-11-15T17:48:30;10.30;99.90
52187;DHT22;38161;53.020;6.598;2022-11-15T17:50:58;10.30;99.90
52187;DHT22;38161;53.020;6.598;2022-11-15T17:53:24;10.30;99.90
52187;DHT22;38161;53.020;6.598;2022-11-15T17:55:50;10.30;99.90
52187;DHT22;38161;53.020;6.598;2022-11-15T17:58:17;10.30;99.90
52187;DHT22;38161;53.020;6.598;2022-11-15T18:00:46;10.20;99.90
52187;DHT22;38161;53.020;6.598;2022-11-15T18:03:13;10.20;99.90
52187;DHT22;38161;53.020;6.598;2022-11-15T18:05:39;10.20;99.90
52187;DHT22;38161;53.020;6.598;2022-11-15T18:08:12;10.20;99.90